createdAt,value
2023-04-13T00:03:12.162Z,0.27
2023-04-13T00:13:15.301Z,1.80
2023-04-13T00:23:17.968Z,1.13
2023-04-13T00:33:20.324Z,1.40
2023-04-13T00:43:22.405Z,0.10
2023-04-13T00:53:24.548Z,0.70
2023-04-13T01:03:27.195Z,1.17
2023-04-13T01:13:35.133Z,1.70
2023-04-13T01:23:57.288Z,0.70
2023-04-13T01:34:01.350Z,2.83
2023-04-13T01:44:03.889Z,2.93
2023-04-13T01:54:17.626Z,0.70
2023-04-13T02:04:22.576Z,2.43
2023-04-13T02:14:27.124Z,1.30
2023-04-13T02:24:30.191Z,0.90
2023-04-13T02:34:33.433Z,1.87
2023-04-13T02:44:36.264Z,1.33
2023-04-13T02:54:38.507Z,0.17
2023-04-13T03:04:40.903Z,1.27
2023-04-13T03:14:43.423Z,1.07
2023-04-13T03:24:46.692Z,0.97
2023-04-13T03:34:55.479Z,0.87
2023-04-13T03:44:57.764Z,1.93
2023-04-13T03:55:00.504Z,2.47
2023-04-13T04:05:06.875Z,0.43
2023-04-13T04:15:10.358Z,0.70
2023-04-13T04:25:22.271Z,1.30
2023-04-13T04:35:33.027Z,0.93
2023-04-13T04:45:36.331Z,1.00
2023-04-13T04:55:39.786Z,1.50
2023-04-13T05:05:45.967Z,1.37
2023-04-13T05:15:54.402Z,1.07
2023-04-13T05:25:56.701Z,0.60
2023-04-13T05:36:01.336Z,0.60
2023-04-13T05:46:03.552Z,1.13
2023-04-13T05:56:07.887Z,1.80
2023-04-13T06:06:12.973Z,1.13
2023-04-13T06:16:15.526Z,1.77
2023-04-13T06:26:19.395Z,3.40
2023-04-13T06:36:27.233Z,2.47
2023-04-13T06:46:31.410Z,1.37
2023-04-13T06:56:38.887Z,2.80
2023-04-13T07:06:41.486Z,0.87
2023-04-13T07:16:43.730Z,1.83
2023-04-13T07:26:46.145Z,0.83
2023-04-13T07:36:48.522Z,0.53
2023-04-13T07:46:57.200Z,1.17
2023-04-13T07:57:02.882Z,2.20
2023-04-13T08:07:07.282Z,1.47
2023-04-13T08:17:10.182Z,2.50
2023-04-13T08:27:13.691Z,0.37
2023-04-13T08:37:16.256Z,1.30
2023-04-13T08:47:21.453Z,1.57
2023-04-13T08:57:24.261Z,3.43
2023-04-13T09:07:30.752Z,1.93
2023-04-13T09:17:37.375Z,2.93
2023-04-13T09:27:40.358Z,2.07
2023-04-13T09:37:44.430Z,2.00
2023-04-13T09:47:47.689Z,3.27
2023-04-13T09:57:49.782Z,2.87
2023-04-13T10:07:51.900Z,1.63
2023-04-13T10:18:12.820Z,5.80
2023-04-13T10:28:15.022Z,5.43
2023-04-13T10:38:17.132Z,3.73
2023-04-13T10:48:21.617Z,2.43
2023-04-13T10:58:23.880Z,2.77
2023-04-13T11:08:27.793Z,5.05
2023-04-13T11:18:30.012Z,5.50
2023-04-13T11:28:43.435Z,4.47
2023-04-13T11:38:48.034Z,6.93
2023-04-13T11:48:50.629Z,7.32
2023-04-13T11:58:53.280Z,6.43
2023-04-13T12:09:10.309Z,5.83
2023-04-13T12:29:24.528Z,5.05
2023-04-13T12:39:27.170Z,4.07
2023-04-13T12:49:29.916Z,3.58
2023-04-13T12:59:32.208Z,2.50
2023-04-13T13:09:34.990Z,5.95
2023-04-13T13:19:37.199Z,6.90
2023-04-13T13:29:39.628Z,4.03
2023-04-13T13:39:42.721Z,3.90
2023-04-13T13:49:44.922Z,5.23
2023-04-13T14:00:19.722Z,2.47
2023-04-13T14:10:21.929Z,7.07
2023-04-13T14:20:24.039Z,4.35
2023-04-13T14:30:27.825Z,5.20
2023-04-13T14:40:31.419Z,4.25
2023-04-13T14:50:33.953Z,4.77
2023-04-13T15:00:39.330Z,5.55
2023-04-13T15:10:42.365Z,7.95
2023-04-13T15:20:44.693Z,6.23
2023-04-13T15:30:46.918Z,7.40
2023-04-13T15:40:49.263Z,3.58
2023-04-13T15:50:57.976Z,3.13
2023-04-13T16:01:09.380Z,5.45
2023-04-13T16:11:11.809Z,3.87
2023-04-13T16:21:19.035Z,5.13
2023-04-13T16:31:21.376Z,2.92
2023-04-13T16:41:23.525Z,5.43
2023-04-13T16:51:27.050Z,5.68
2023-04-13T17:01:30.927Z,3.80
2023-04-13T17:11:33.147Z,5.57
2023-04-13T17:21:35.523Z,9.48
2023-04-13T17:31:37.720Z,4.77
2023-04-13T17:41:41.600Z,4.80
2023-04-13T17:51:48.398Z,4.83
2023-04-13T18:01:54.255Z,5.67
2023-04-13T18:11:56.802Z,4.85
2023-04-13T18:21:59.169Z,6.57
2023-04-13T18:32:01.395Z,5.57
2023-04-13T18:42:03.772Z,8.35
2023-04-13T18:52:06.220Z,4.50
2023-04-13T19:02:08.586Z,5.50
2023-04-13T19:12:10.865Z,6.87
2023-04-13T19:22:13.075Z,9.15
2023-04-13T19:32:16.881Z,4.33
2023-04-13T19:42:19.287Z,7.90
2023-04-13T19:52:21.531Z,6.30
2023-04-13T20:02:23.775Z,6.27
2023-04-13T20:12:26.010Z,8.23
2023-04-13T20:22:28.525Z,4.45
2023-04-13T20:32:32.178Z,7.33
2023-04-13T20:42:34.336Z,6.90
2023-04-13T20:52:36.920Z,5.30
2023-04-13T21:02:39.987Z,5.90
2023-04-13T21:12:42.258Z,6.20
2023-04-13T21:22:44.314Z,6.60
2023-04-13T21:32:46.422Z,4.13
2023-04-13T21:42:49.570Z,5.47
2023-04-13T21:52:51.999Z,7.80
2023-04-13T22:02:55.276Z,9.53
2023-04-13T22:12:57.524Z,5.47
2023-04-13T22:22:59.698Z,6.70
2023-04-13T22:33:01.911Z,4.03
2023-04-13T22:43:04.241Z,3.38
2023-04-13T22:53:06.452Z,4.13
2023-04-13T23:03:08.763Z,2.60
2023-04-13T23:13:10.962Z,2.70
2023-04-13T23:23:13.129Z,5.80
2023-04-13T23:33:15.796Z,5.43
2023-04-13T23:43:17.943Z,5.40
2023-04-13T23:53:20.046Z,8.97
